首页
METAR-TAF:

METAR-TAF

机场 :

Chicago Rockford International Airport

罗克福德, 伊利诺伊州, 美国

纬度: 42-11-34N, 经度: 089-05-36W, 海拔: 224米

当前天气观测

该预报发布于23分钟前的23:54 UTC
风速7节,风向
温度 24°C
湿度 74%
气压 1011 hPa
能見度: 16.1公里
少量云层高于5000英尺
少量云层高于14000英尺
多云层高于20000英尺
阴天层高于25000英尺

METAR: KRFD 162354Z 18007KT 10SM FEW050 FEW140 BKN200 OVC250 24/19 A2985 RMK AO2 RAE16 SLP103 P0001 60016 T02390189 10344 20222 50006 $

时间: 19:17 (00:17 UTC)

预报

该预报发布于22分钟前的23:55 UTC
预报有效从17日的 00点(UTC)到 17日的 24点(UTC)
风速9节,风向
能見度: 10公里
散云层高于10000英尺
散云层高于25000英尺
从 17日的 1700点(UTC)
风速13节,风向南转西南,有时为23节阵风
能見度: 10公里
多云层高于5000英尺

TAF: KRFD 162355Z 1700/1724 19009KT P6SM SCT100 SCT250 FM171700 20013G23KT P6SM BKN050

超过4000个机场的气象观测和天气预报(METAR&TAF报告)。

可查询的气象台以黄色和红色小点在地图上表示。

将鼠标移到小点上方,可查看气象台名称。

然后点击查看天气观测和预报。

如需切换地图:点击带黑十字的绿色按钮放大地图;点击带横线的绿色按钮缩小地图;或者点击绿色箭头查看邻近地区的地图。


METAR-TAF: